WADD/DPS METAR and TAF weather

Enter ICAO airport designator
Station Type Date Time Source
WADD METAR 2018/12/11 20:00 UTC NOAA

WADD 112000Z 26007KT 9999 SCT017 BKN040 28/25 Q1008 NOSIG


Station Type Date Time Source
WADD Decoded METAR 2018/12/11 20:00 UTC NOAA

Station name not available
Dec 11, 2018 - 03:00 PM EST / 2018.12.11 2000 UTC
Wind: from the W (260 degrees) at 8 MPH (7 KT):0
Visibility: greater than 7 mile(s):0
Sky conditions: mostly cloudy
Temperature: 82 F (28 C)
Dew Point: 77 F (25 C)
Relative Humidity: 83%
Pressure (altimeter): 29.77 in. Hg (1008 hPa)
ob: WADD 112000Z 26007KT 9999 SCT017 BKN040 28/25 Q1008 NOSIG
cycle: 20

Station Type Date Time Source
WADD TAF 2018/12/11 18:12 UTC NOAA

TAF TAF WADD 111700Z 1118/1218 25010KT 9999 SCT017
TEMPO 1120/1200 VRB05KT


Example: see airport list